Stations météo

réclame
Mon MeteoGroup
Chamonix, France (7469): Température de l'air & dewpoint: 19.02.2018 02:00:00 - 25.02.2018 02:00:00 (CET)Chamonix, France (7469): Vitesse du vent & gusts: 19.02.2018 02:00:00 - 25.02.2018 02:00:00 (CET)Chamonix, France (7469): Direction du vent: 19.02.2018 02:00:00 - 25.02.2018 02:00:00 (CET)Chamonix, France (7469): Quantités de précipitations: 19.02.2018 02:00:00 - 25.02.2018 02:00:00 (CET)
Date & Time tt [°C] td [°C] ff [km/h] ff [knt] fx [km/h] fx [knt] dd rr [mm]
25.02.2018 02:00:00 -2,8 -4,1 0 0 5 3 N 0,0
25.02.2018 01:00:00 -2,8 -4,1 2 1 8 4 SSW -
25.02.2018 00:00:00 -2,8 -4,1 0 0 4 2 N 0,0
24.02.2018 23:00:00 -3,0 -4,1 0 0 4 2 N 0,0
24.02.2018 22:00:00 -3,2 -4,2 0 0 8 4 N 0,0
24.02.2018 21:00:00 -3,1 -4,4 4 2 8 4 S 0,0
24.02.2018 20:00:00 -2,5 -4,1 4 2 8 4 S 0,0
24.02.2018 19:00:00 -1,6 -3,8 4 2 9 5 SW -
24.02.2018 18:00:00 -0,2 -3,7 4 2 16 9 SSW 0,0
24.02.2018 17:00:00 3,1 -3,1 5 3 15 8 SSW 0,0
24.02.2018 16:00:00 4,4 -2,7 5 3 15 8 SW 0,0
24.02.2018 15:00:00 5,1 -2,3 8 4 16 9 SSW 0,0
24.02.2018 14:00:00 5,5 -2,1 4 2 16 9 SSW 0,0
24.02.2018 13:00:00 3,7 -3,1 4 2 9 5 SSW -
24.02.2018 12:00:00 -1,4 -4,4 2 1 8 4 E 0,0
24.02.2018 11:00:00 -3,4 -5,3 0 0 16 9 N 0,0
24.02.2018 10:00:00 -3,6 -5,3 4 2 11 6 SW 0,0
24.02.2018 09:00:00 -4,0 -5,4 8 4 16 9 S 0,0
24.02.2018 08:00:00 -4,5 -5,6 4 2 16 9 SSW 0,0
24.02.2018 07:00:00 -4,4 -5,5 4 2 16 9 S -
24.02.2018 06:00:00 -4,4 -5,5 4 2 11 6 SSW 0,0
24.02.2018 05:00:00 -4,3 -5,5 4 2 11 6 SW 0,0
24.02.2018 04:00:00 -4,1 -5,5 0 0 11 6 N 0,0
24.02.2018 03:00:00 -4,1 -5,2 4 2 9 5 SW 0,0
24.02.2018 02:00:00 -4,1 -5,2 4 2 11 6 SSW 0,0
24.02.2018 01:00:00 -4,0 -5,3 2 1 11 6 S -
24.02.2018 00:00:00 -3,6 -5,0 4 2 9 5 SW 0,0
23.02.2018 23:00:00 -3,7 -5,2 0 0 8 4 N 0,0
23.02.2018 22:00:00 -3,5 -5,1 4 2 9 5 WSW 0,0
23.02.2018 21:00:00 -3,7 -5,4 4 2 11 6 S 0,0
23.02.2018 20:00:00 -3,4 -5,3 4 2 11 6 S 0,0
23.02.2018 19:00:00 -2,7 -5,2 2 1 13 7 WSW -
23.02.2018 18:00:00 -1,1 -5,0 5 3 15 8 S 0,0
23.02.2018 17:00:00 1,5 -4,6 5 3 18 10 SSW 0,0
23.02.2018 16:00:00 2,1 -4,4 5 3 15 8 SW 0,0
23.02.2018 15:00:00 1,2 -5,1 8 4 11 6 SW 0,0
23.02.2018 14:00:00 -0,3 -5,1 5 3 13 7 SW 0,0
23.02.2018 13:00:00 -0,6 -5,2 2 1 8 4 SE -
23.02.2018 12:00:00 -2,5 -6,2 4 2 9 5 SSW 0,0
23.02.2018 11:00:00 -3,3 -6,4 2 1 8 4 S 0,0
23.02.2018 10:00:00 -3,9 -6,5 0 0 5 3 N 0,0
23.02.2018 09:00:00 -4,2 -6,7 2 1 4 2 S 0,0
23.02.2018 08:00:00 -5,2 -6,7 0 0 4 2 N 0,0
23.02.2018 07:00:00 -4,8 -6,8 0 0 4 2 N -
23.02.2018 06:00:00 -4,6 -6,4 0 0 5 3 N 0,0
23.02.2018 05:00:00 -4,6 -6,0 0 0 4 2 N 0,0
23.02.2018 04:00:00 -4,7 -5,9 0 0 8 4 N 0,0
23.02.2018 03:00:00 -4,5 -5,9 4 2 9 5 S 0,0
23.02.2018 02:00:00 -4,4 -5,8 4 2 11 6 SSW 0,0
23.02.2018 01:00:00 -4,3 -5,8 4 2 9 5 S -
23.02.2018 00:00:00 -4,1 -5,8 4 2 11 6 SW 0,0
22.02.2018 23:00:00 -3,8 -5,8 4 2 11 6 SSW 0,0
22.02.2018 22:00:00 -3,6 -5,8 4 2 9 5 SW 0,0
22.02.2018 21:00:00 -3,3 -5,8 4 2 11 6 SSW 0,0
22.02.2018 20:00:00 -2,9 -5,9 4 2 13 7 SSW 0,0
22.02.2018 19:00:00 -2,6 -5,7 4 2 13 7 SW -
22.02.2018 18:00:00 -1,6 -5,6 5 3 16 9 SSW 0,0
22.02.2018 17:00:00 0,0 -5,2 8 4 18 10 SSW 0,0
22.02.2018 16:00:00 0,8 -5,7 8 4 18 10 SSW 0,0
22.02.2018 15:00:00 1,4 -6,0 9 5 18 10 SW 0,0
22.02.2018 14:00:00 0,3 -6,3 8 4 15 8 SW 0,0
22.02.2018 13:00:00 1,7 -6,9 2 1 8 4 SSE -
22.02.2018 12:00:00 -1,3 -7,4 0 0 8 4 N 0,0
22.02.2018 11:00:00 -4,7 -6,1 0 0 4 2 N 0,0
22.02.2018 10:00:00 -6,8 -7,6 0 0 4 2 N 0,0
22.02.2018 09:00:00 -7,8 -8,7 0 0 4 2 N 0,0
22.02.2018 08:00:00 -8,3 -9,1 0 0 4 2 N 0,0
22.02.2018 07:00:00 -8,2 -9,1 0 0 4 2 N -
22.02.2018 06:00:00 -8,2 -9,0 0 0 4 2 N 0,0
22.02.2018 05:00:00 -7,9 -8,7 0 0 4 2 N 0,0
22.02.2018 04:00:00 -7,3 -8,0 0 0 4 2 N 0,0
22.02.2018 03:00:00 -7,1 -8,0 2 1 4 2 N 0,0
22.02.2018 02:00:00 -6,6 -7,8 2 1 4 2 NNW 0,0
22.02.2018 01:00:00 -5,6 -7,0 0 0 0 0 N -
22.02.2018 00:00:00 -4,5 -6,8 0 0 4 2 N 0,0
21.02.2018 23:00:00 -3,3 -5,8 0 0 8 4 N 0,0
21.02.2018 22:00:00 -2,8 -5,8 2 1 9 5 S 0,0
21.02.2018 21:00:00 -2,6 -5,9 0 0 11 6 N 0,0
21.02.2018 20:00:00 -2,3 -6,0 4 2 11 6 SSW 0,0
21.02.2018 19:00:00 -1,9 -5,9 5 3 13 7 SW -
21.02.2018 18:00:00 -1,4 -5,8 4 2 22 12 SSW 0,0
21.02.2018 17:00:00 0,1 -6,1 8 4 24 13 SW 0,0
21.02.2018 16:00:00 1,8 -5,6 9 5 22 12 SSW 0,0
21.02.2018 15:00:00 2,7 -5,9 8 4 22 12 SW 0,0
21.02.2018 14:00:00 3,2 -5,0 8 4 22 12 SSW 0,0
21.02.2018 13:00:00 2,7 -9,9 8 4 34 18 N -
21.02.2018 12:00:00 2,3 -9,0 8 4 26 14 NNE 0,0
21.02.2018 11:00:00 -0,8 -9,4 9 5 26 14 ENE 0,0
21.02.2018 10:00:00 -3,3 -5,8 5 3 18 10 SSW 0,0
21.02.2018 09:00:00 -3,8 -5,3 5 3 18 10 S 0,0
21.02.2018 08:00:00 -4,0 -5,3 5 3 18 10 S 0,0
21.02.2018 07:00:00 -4,0 -5,3 2 1 13 7 SE -
21.02.2018 06:00:00 -4,0 -5,3 4 2 8 4 SSW 0,0
21.02.2018 05:00:00 -3,7 -5,1 4 2 9 5 SSW 0,0
21.02.2018 04:00:00 -3,5 -5,1 4 2 9 5 SW 0,0
21.02.2018 03:00:00 -3,2 -4,9 4 2 11 6 SSW 0,0
21.02.2018 02:00:00 -3,0 -5,0 2 1 11 6 S 0,0
21.02.2018 01:00:00 -2,0 -5,2 0 0 11 6 N -
21.02.2018 00:00:00 -1,9 -4,7 5 3 11 6 WSW 0,0
20.02.2018 23:00:00 -2,9 -5,4 0 0 8 4 N 0,0
20.02.2018 22:00:00 -1,9 -5,6 0 0 9 5 N 0,0
20.02.2018 21:00:00 -1,3 -5,3 2 1 13 7 ENE 0,0
20.02.2018 20:00:00 -0,9 -4,4 2 1 8 4 N 0,0
20.02.2018 19:00:00 -1,2 -4,2 2 1 8 4 ENE -
20.02.2018 18:00:00 1,0 -4,2 2 1 5 3 NE 0,0
20.02.2018 17:00:00 2,5 -4,3 0 0 9 5 N 0,0
20.02.2018 16:00:00 3,1 -3,7 9 5 21 11 WSW 0,0
20.02.2018 15:00:00 5,0 -2,8 9 5 21 11 SSW 0,0
20.02.2018 14:00:00 3,9 -3,2 8 4 24 13 WSW 0,0
20.02.2018 13:00:00 3,7 -2,9 11 6 22 12 WSW -
20.02.2018 12:00:00 3,0 -3,2 9 5 18 10 SW 0,0
20.02.2018 11:00:00 -0,1 -2,5 0 0 13 7 N 0,0
20.02.2018 10:00:00 -0,8 -2,2 4 2 8 4 SSW 0,0
20.02.2018 09:00:00 -0,9 -1,9 0 0 9 5 N 0,0
20.02.2018 08:00:00 -1,4 -2,1 0 0 9 5 N 0,0
20.02.2018 07:00:00 -1,3 -2,0 2 1 9 5 SSW -
20.02.2018 06:00:00 -1,2 -2,0 2 1 9 5 S 0,0
20.02.2018 05:00:00 -1,1 -1,9 2 1 9 5 WSW 0,0
20.02.2018 04:00:00 -0,9 -1,9 0 0 5 3 N 0,0
20.02.2018 03:00:00 -0,8 -1,8 0 0 9 5 N 0,0
20.02.2018 02:00:00 -0,6 -1,9 4 2 11 6 SW 0,0
20.02.2018 01:00:00 -0,5 -1,6 0 0 5 3 N -
20.02.2018 00:00:00 -0,5 -1,8 4 2 9 5 SW 0,0
19.02.2018 23:00:00 -0,4 -1,8 0 0 5 3 N 0,0
19.02.2018 22:00:00 -0,4 -1,7 0 0 4 2 N 0,0
19.02.2018 21:00:00 -0,2 -1,8 0 0 8 4 N 0,0
19.02.2018 20:00:00 -0,4 -1,7 0 0 8 4 N 0,0
19.02.2018 19:00:00 -0,4 -1,5 2 1 5 3 SSW -
19.02.2018 18:00:00 0,9 -2,2 0 0 8 4 N 0,0
19.02.2018 17:00:00 4,0 -3,1 4 2 13 7 WSW 0,0
19.02.2018 16:00:00 5,7 -3,1 8 4 15 8 SW 0,0
19.02.2018 15:00:00 6,1 -3,3 5 3 13 7 SW 0,0
19.02.2018 14:00:00 6,9 -3,4 4 2 11 6 SSE 0,0
19.02.2018 13:00:00 6,0 -5,1 4 2 11 6 SE -
19.02.2018 12:00:00 3,2 -3,6 4 2 8 4 S 0,0
19.02.2018 11:00:00 -4,2 -4,7 0 0 4 2 N 0,0
19.02.2018 10:00:00 -4,7 -5,4 0 0 2 1 N 0,0
19.02.2018 09:00:00 -4,6 -5,3 0 0 8 4 N 0,0
19.02.2018 08:00:00 -4,2 -4,7 0 0 4 2 N 0,0
19.02.2018 07:00:00 -4,0 -4,7 0 0 5 3 N -
19.02.2018 06:00:00 -3,7 -4,1 0 0 2 1 N 0,0
19.02.2018 05:00:00 -3,6 -4,0 0 0 5 3 N 0,0
19.02.2018 04:00:00 -3,8 -4,3 0 0 2 1 N 0,0
19.02.2018 03:00:00 -2,7 -3,4 0 0 4 2 N 0,0
19.02.2018 02:00:00 -2,2 -2,6 0 0 4 2 N 0,0

tt = Température de l'air
td = dewpoint
ff = Vitesse du vent
fx = gusts
dd = Direction du vent
rr = Quantités de précipitations

stations d'obs. à proximité